Hails, China
Current Conditions -  °F | °C
As of 8:00 PM on Sunday 21 Dec 2014 (Local Time) from ZBHH Reporting Station
Clear Clear  
Wind Chill:   Ceiling: Unl
Heat Index: 14°   Visibility: 5mi
Dew Point:   Wind: 4mph
Humidity: 57%   Direction: 100°E
Pressure: 30.24"   Gusts: NA
Location:  41.45°N, 106.38°E
Report Text: ZBHH 211200Z 10002MPS 050V150 8000 NSC M10/M17 Q1024 NOSIG
Loading
Personal Weather Stations






























Interactive Weather Map New forecast layout! Learn more

10-Day Weather Forecast

Advertisements
Track Severe Weather on mobile